createdAt,value
2022-12-06T00:00:14.700Z,8.505
2022-12-06T00:01:13.270Z,8.539
2022-12-06T00:02:13.555Z,8.539
2022-12-06T00:03:13.276Z,8.534
2022-12-06T00:04:13.128Z,8.574
2022-12-06T00:05:13.391Z,8.569
2022-12-06T00:06:12.617Z,8.579
2022-12-06T00:07:12.656Z,8.579
2022-12-06T00:08:13.195Z,8.590
2022-12-06T00:09:12.733Z,8.585
2022-12-06T00:10:14.022Z,8.579
2022-12-06T00:11:13.203Z,8.574
2022-12-06T00:12:13.554Z,8.590
2022-12-06T00:13:13.509Z,8.590
2022-12-06T00:14:13.430Z,8.579
2022-12-06T00:15:13.275Z,8.579
2022-12-06T00:16:13.056Z,8.609
2022-12-06T00:17:12.653Z,8.621
2022-12-06T00:18:31.773Z,8.642
2022-12-06T00:19:12.940Z,8.654
2022-12-06T00:20:13.943Z,8.659
2022-12-06T00:21:13.391Z,8.654
2022-12-06T00:22:13.349Z,8.654
2022-12-06T00:23:13.065Z,8.654
2022-12-06T00:24:13.617Z,8.671
2022-12-06T00:25:13.282Z,8.670
2022-12-06T00:26:13.601Z,8.645
2022-12-06T00:27:14.036Z,8.642
2022-12-06T00:28:13.006Z,8.638
2022-12-06T00:29:13.631Z,8.630
2022-12-06T00:30:36.135Z,8.609
2022-12-06T00:31:13.134Z,8.614
2022-12-06T00:32:19.037Z,8.610
2022-12-06T00:33:13.535Z,8.609
2022-12-06T00:34:13.501Z,8.601
2022-12-06T00:35:13.562Z,8.604
2022-12-06T00:36:12.702Z,8.603
2022-12-06T00:37:13.773Z,8.614
2022-12-06T00:38:13.409Z,8.621
2022-12-06T00:39:13.681Z,8.614
2022-12-06T00:40:13.594Z,8.642
2022-12-06T00:41:13.281Z,8.619
2022-12-06T00:42:13.535Z,8.609
2022-12-06T00:43:13.510Z,8.626
2022-12-06T00:44:13.499Z,8.614
2022-12-06T00:45:14.208Z,8.600
2022-12-06T00:46:13.221Z,8.609
2022-12-06T00:47:13.295Z,8.619
2022-12-06T00:48:13.438Z,8.621
2022-12-06T00:49:13.273Z,8.625
2022-12-06T00:50:13.094Z,8.614
2022-12-06T00:51:12.790Z,8.614
2022-12-06T00:52:13.354Z,8.604
2022-12-06T00:53:13.131Z,8.600
2022-12-06T00:54:14.232Z,8.600
2022-12-06T00:55:13.884Z,8.600
2022-12-06T00:56:13.703Z,8.614
2022-12-06T00:57:13.655Z,8.609
2022-12-06T00:58:14.390Z,8.620
2022-12-06T00:59:13.567Z,8.626
2022-12-06T01:00:14.581Z,8.625
2022-12-06T01:01:14.920Z,8.631
2022-12-06T01:02:13.527Z,8.609
2022-12-06T01:03:14.099Z,8.620
2022-12-06T01:04:13.609Z,8.614
2022-12-06T01:05:13.905Z,8.620
2022-12-06T01:06:14.569Z,8.620
2022-12-06T01:07:13.061Z,8.625
2022-12-06T01:08:13.558Z,8.631
2022-12-06T01:09:13.116Z,8.616
2022-12-06T01:10:13.164Z,8.609
2022-12-06T01:11:13.852Z,8.620
2022-12-06T01:12:13.644Z,8.609
2022-12-06T01:13:13.447Z,8.604
2022-12-06T01:14:13.069Z,8.579
2022-12-06T01:15:14.494Z,8.590
2022-12-06T01:16:13.952Z,8.569
2022-12-06T01:17:13.295Z,8.560
2022-12-06T01:18:12.684Z,8.545
2022-12-06T01:19:13.549Z,8.569
2022-12-06T01:20:13.817Z,8.560
2022-12-06T01:21:13.411Z,8.579
2022-12-06T01:22:13.379Z,8.590
2022-12-06T01:23:12.783Z,8.600
2022-12-06T01:24:13.738Z,8.626
2022-12-06T01:25:13.674Z,8.626
2022-12-06T01:26:12.601Z,8.654
2022-12-06T01:27:13.961Z,8.666
2022-12-06T01:28:13.466Z,8.682
2022-12-06T01:29:12.887Z,8.659
2022-12-06T01:30:13.934Z,8.684
2022-12-06T01:31:13.134Z,8.684
2022-12-06T01:32:13.101Z,8.684
2022-12-06T01:33:12.814Z,8.689
2022-12-06T01:34:12.721Z,8.666
2022-12-06T01:35:13.135Z,8.678
2022-12-06T01:36:13.049Z,8.684
2022-12-06T01:37:12.967Z,8.671
2022-12-06T01:38:13.517Z,8.677
2022-12-06T01:39:13.425Z,8.684
2022-12-06T01:40:12.461Z,8.649
2022-12-06T01:41:13.121Z,8.654
2022-12-06T01:42:13.560Z,8.654
2022-12-06T01:43:13.652Z,8.626
2022-12-06T01:44:18.457Z,8.625
2022-12-06T01:45:14.144Z,8.649
2022-12-06T01:46:14.084Z,8.666
2022-12-06T01:47:13.814Z,8.659
2022-12-06T01:48:13.323Z,8.666
2022-12-06T01:49:14.203Z,8.671
2022-12-06T01:50:13.605Z,8.649
2022-12-06T01:51:13.286Z,8.642
2022-12-06T01:52:13.456Z,8.666
2022-12-06T01:53:12.896Z,8.654
2022-12-06T01:54:13.260Z,8.645
2022-12-06T01:55:14.314Z,8.692
2022-12-06T01:56:13.002Z,8.683
2022-12-06T01:57:13.840Z,8.682
2022-12-06T01:58:13.256Z,8.679
2022-12-06T01:59:12.847Z,8.689
2022-12-06T02:00:14.988Z,8.654
2022-12-06T02:01:13.952Z,8.645
2022-12-06T02:02:13.244Z,8.633
2022-12-06T02:03:18.077Z,8.585
2022-12-06T02:04:13.454Z,8.585
2022-12-06T02:05:13.054Z,8.564
2022-12-06T02:06:13.600Z,8.569
2022-12-06T02:07:13.278Z,8.579
2022-12-06T02:08:13.019Z,8.585
2022-12-06T02:09:12.894Z,8.579
2022-12-06T02:10:14.399Z,8.579
2022-12-06T02:11:12.946Z,8.579
2022-12-06T02:12:13.409Z,8.574
2022-12-06T02:13:12.960Z,8.564
2022-12-06T02:14:13.549Z,8.564
2022-12-06T02:15:13.141Z,8.569
2022-12-06T02:16:13.380Z,8.560
2022-12-06T02:17:21.031Z,8.550
2022-12-06T02:18:13.576Z,8.560
2022-12-06T02:19:12.962Z,8.555
2022-12-06T02:20:13.668Z,8.550
2022-12-06T02:21:13.269Z,8.569
2022-12-06T02:22:12.341Z,8.579
2022-12-06T02:23:13.063Z,8.529
2022-12-06T02:24:13.124Z,8.545
2022-12-06T02:25:13.226Z,8.550
2022-12-06T02:26:13.542Z,8.550
2022-12-06T02:27:13.614Z,8.550
2022-12-06T02:28:13.384Z,8.524
2022-12-06T02:29:26.784Z,8.505
2022-12-06T02:30:13.948Z,8.475
2022-12-06T02:31:13.885Z,8.5
2022-12-06T02:32:14.232Z,8.489
2022-12-06T02:33:13.119Z,8.5
2022-12-06T02:34:12.668Z,8.475
2022-12-06T02:35:13.797Z,8.479
2022-12-06T02:36:13.535Z,8.494
2022-12-06T02:37:13.299Z,8.465
2022-12-06T02:38:13.296Z,8.460
2022-12-06T02:39:31.582Z,8.475
2022-12-06T02:40:13.147Z,8.484
2022-12-06T02:41:14.000Z,8.470
2022-12-06T02:42:13.662Z,8.479
2022-12-06T02:43:13.423Z,8.489
2022-12-06T02:44:12.405Z,8.489
2022-12-06T02:45:13.671Z,8.460
2022-12-06T02:46:13.568Z,8.484
2022-12-06T02:47:13.437Z,8.479
2022-12-06T02:48:12.899Z,8.475
2022-12-06T02:49:35.204Z,8.470
2022-12-06T02:50:13.370Z,8.460
2022-12-06T02:51:12.996Z,8.484
2022-12-06T02:52:13.172Z,8.479
2022-12-06T02:53:12.972Z,8.489
2022-12-06T02:54:13.692Z,8.475
2022-12-06T02:55:13.375Z,8.489
2022-12-06T02:56:12.688Z,8.505
2022-12-06T02:57:13.303Z,8.520
2022-12-06T02:58:13.892Z,8.520
2022-12-06T02:59:13.723Z,8.460
2022-12-06T03:00:14.520Z,8.439
2022-12-06T03:01:13.424Z,8.484
2022-12-06T03:02:12.591Z,8.479
2022-12-06T03:03:12.743Z,8.479
2022-12-06T03:04:13.080Z,8.510
2022-12-06T03:05:14.622Z,8.529
2022-12-06T03:06:13.360Z,8.524
2022-12-06T03:08:13.813Z,8.510
2022-12-06T03:09:13.321Z,8.510
2022-12-06T03:10:13.262Z,8.479
2022-12-06T03:12:13.447Z,8.520
2022-12-06T03:13:13.460Z,8.539
2022-12-06T03:14:14.940Z,8.529
2022-12-06T03:15:14.535Z,8.534
2022-12-06T03:16:13.251Z,8.554
2022-12-06T03:17:12.805Z,8.541
2022-12-06T03:18:13.595Z,8.555
2022-12-06T03:19:13.598Z,8.543
2022-12-06T03:20:13.129Z,8.536
2022-12-06T03:21:12.711Z,8.548
2022-12-06T03:22:13.698Z,8.513
2022-12-06T03:23:13.459Z,8.510
2022-12-06T03:24:13.014Z,8.527
2022-12-06T03:25:13.814Z,8.531
2022-12-06T03:26:13.453Z,8.548
2022-12-06T03:27:12.988Z,8.539
2022-12-06T03:28:13.506Z,8.536
2022-12-06T03:29:13.235Z,8.538
2022-12-06T03:30:12.989Z,8.555
2022-12-06T03:31:12.899Z,8.564
2022-12-06T03:32:13.607Z,8.595
2022-12-06T03:33:13.922Z,8.609
2022-12-06T03:34:12.790Z,8.626
2022-12-06T03:36:13.336Z,8.631
2022-12-06T03:37:12.815Z,8.631
2022-12-06T03:38:13.367Z,8.642
2022-12-06T03:39:13.498Z,8.620
2022-12-06T03:40:13.485Z,8.637
2022-12-06T03:41:12.442Z,8.631
2022-12-06T03:42:13.499Z,8.642
2022-12-06T03:43:13.064Z,8.637
2022-12-06T03:44:13.584Z,8.666
2022-12-06T03:45:14.084Z,8.671
2022-12-06T03:46:12.840Z,8.654
2022-12-06T03:47:15.929Z,8.664
2022-12-06T03:48:13.350Z,8.678
2022-12-06T03:49:13.236Z,8.677
2022-12-06T03:50:13.058Z,8.654
2022-12-06T03:51:13.015Z,8.626
2022-12-06T03:52:13.919Z,8.595
2022-12-06T03:53:13.964Z,8.600
2022-12-06T03:54:13.771Z,8.600
2022-12-06T03:55:13.761Z,8.604
2022-12-06T03:56:13.522Z,8.609
2022-12-06T03:57:13.392Z,8.619
2022-12-06T03:58:13.049Z,8.631
2022-12-06T03:59:13.307Z,8.649
2022-12-06T04:00:13.519Z,8.625
2022-12-06T04:01:13.367Z,8.619
2022-12-06T04:02:13.508Z,8.631
2022-12-06T04:03:13.318Z,8.631
2022-12-06T04:04:13.427Z,8.604
2022-12-06T04:05:13.174Z,8.545
2022-12-06T04:06:13.512Z,8.534
2022-12-06T04:07:12.847Z,8.564
2022-12-06T04:08:13.422Z,8.574
2022-12-06T04:09:13.458Z,8.560
2022-12-06T04:10:12.484Z,8.515
2022-12-06T04:11:13.464Z,8.524
2022-12-06T04:12:13.376Z,8.550
2022-12-06T04:13:18.145Z,8.555
2022-12-06T04:14:12.988Z,8.555
2022-12-06T04:15:14.291Z,8.579
2022-12-06T04:16:13.103Z,8.569
2022-12-06T04:17:13.489Z,8.590
2022-12-06T04:18:13.197Z,8.600
2022-12-06T04:19:12.910Z,8.585
2022-12-06T04:20:13.255Z,8.609
2022-12-06T04:21:12.802Z,8.600
2022-12-06T04:22:12.982Z,8.569
2022-12-06T04:23:12.891Z,8.585
2022-12-06T04:24:12.773Z,8.585
2022-12-06T04:25:12.735Z,8.600
2022-12-06T04:26:12.800Z,8.604
2022-12-06T04:27:13.345Z,8.626
2022-12-06T04:28:13.541Z,8.616
2022-12-06T04:29:13.389Z,8.600
2022-12-06T04:30:13.681Z,8.616
2022-12-06T04:31:18.565Z,8.631
2022-12-06T04:32:13.095Z,8.642
2022-12-06T04:33:13.682Z,8.614
2022-12-06T04:34:13.330Z,8.637
2022-12-06T04:35:13.507Z,8.625
2022-12-06T04:36:18.458Z,8.637
2022-12-06T04:37:13.785Z,8.666
2022-12-06T04:38:18.579Z,8.666
2022-12-06T04:39:17.613Z,8.670
2022-12-06T04:40:13.016Z,8.677
2022-12-06T04:41:13.665Z,8.677
2022-12-06T04:42:13.481Z,8.659
2022-12-06T04:43:12.915Z,8.684
2022-12-06T04:44:13.041Z,8.682
2022-12-06T04:45:13.883Z,8.663
2022-12-06T04:46:13.420Z,8.656
2022-12-06T04:47:13.703Z,8.652
2022-12-06T04:48:13.531Z,8.637
2022-12-06T04:49:13.363Z,8.610
2022-12-06T04:50:13.701Z,8.598
2022-12-06T04:51:13.675Z,8.604
2022-12-06T04:52:13.150Z,8.564
2022-12-06T04:53:13.896Z,8.592
2022-12-06T04:54:13.886Z,8.574
2022-12-06T04:55:13.664Z,8.621
2022-12-06T04:56:13.471Z,8.625
2022-12-06T04:57:13.070Z,8.631
2022-12-06T04:58:13.972Z,8.659
2022-12-06T04:59:13.511Z,8.677
2022-12-06T05:00:13.805Z,8.642
2022-12-06T05:01:13.780Z,8.642
2022-12-06T05:02:28.043Z,8.666
2022-12-06T05:03:13.707Z,8.678
2022-12-06T05:04:13.329Z,8.670
2022-12-06T05:05:12.848Z,8.678
2022-12-06T05:06:13.014Z,8.649
2022-12-06T05:07:13.862Z,8.654
2022-12-06T05:08:13.868Z,8.631
2022-12-06T05:09:13.412Z,8.644
2022-12-06T05:10:13.299Z,8.637
2022-12-06T05:11:13.399Z,8.595
2022-12-06T05:12:13.440Z,8.569
2022-12-06T05:13:13.261Z,8.545
2022-12-06T05:14:12.907Z,8.550
2022-12-06T05:15:15.990Z,8.555
2022-12-06T05:16:13.651Z,8.579
2022-12-06T05:17:14.061Z,8.569
2022-12-06T05:18:12.772Z,8.569
2022-12-06T05:19:13.935Z,8.574
2022-12-06T05:20:35.350Z,8.550
2022-12-06T05:21:13.370Z,8.539
2022-12-06T05:23:13.223Z,8.560
2022-12-06T05:24:13.578Z,8.555
2022-12-06T05:25:13.489Z,8.555
2022-12-06T05:26:13.325Z,8.555
2022-12-06T05:27:13.675Z,8.560
2022-12-06T05:28:13.504Z,8.574
2022-12-06T05:29:13.412Z,8.534
2022-12-06T05:30:14.083Z,8.534
2022-12-06T05:31:13.349Z,8.505
2022-12-06T05:32:12.735Z,8.520
2022-12-06T05:33:13.860Z,8.539
2022-12-06T05:34:13.444Z,8.505
2022-12-06T05:35:14.426Z,8.505
2022-12-06T05:36:13.714Z,8.510
2022-12-06T05:37:13.902Z,8.470
2022-12-06T05:38:14.045Z,8.484
2022-12-06T05:39:13.289Z,8.515
2022-12-06T05:40:13.310Z,8.484
2022-12-06T05:41:13.364Z,8.454
2022-12-06T05:42:22.075Z,8.454
2022-12-06T05:43:12.762Z,8.489
2022-12-06T05:44:13.364Z,8.460
2022-12-06T05:45:14.017Z,8.475
2022-12-06T05:46:14.266Z,8.494
2022-12-06T05:47:13.415Z,8.475
2022-12-06T05:48:13.336Z,8.484
2022-12-06T05:49:13.615Z,8.489
2022-12-06T05:50:13.754Z,8.484
2022-12-06T05:51:14.062Z,8.475
2022-12-06T05:52:13.408Z,8.470
2022-12-06T05:53:13.501Z,8.475
2022-12-06T05:54:13.795Z,8.494
2022-12-06T05:55:14.337Z,8.520
2022-12-06T05:56:13.073Z,8.505
2022-12-06T05:57:14.252Z,8.534
2022-12-06T05:58:13.403Z,8.534
2022-12-06T05:59:13.569Z,8.534
2022-12-06T06:00:14.628Z,8.545
2022-12-06T06:01:13.540Z,8.539
2022-12-06T06:02:13.070Z,8.529
2022-12-06T06:03:13.269Z,8.545
2022-12-06T06:04:13.189Z,8.555
2022-12-06T06:05:13.080Z,8.539
2022-12-06T06:06:13.612Z,8.510
2022-12-06T06:07:13.440Z,8.538
2022-12-06T06:08:13.599Z,8.509
2022-12-06T06:09:13.849Z,8.510
2022-12-06T06:10:13.802Z,8.520
2022-12-06T06:11:13.562Z,8.520
2022-12-06T06:12:13.246Z,8.521
2022-12-06T06:13:13.042Z,8.520
2022-12-06T06:14:13.734Z,8.527
2022-12-06T06:15:14.725Z,8.527
2022-12-06T06:16:14.492Z,8.545
2022-12-06T06:17:12.315Z,8.560
2022-12-06T06:18:13.576Z,8.600
2022-12-06T06:19:13.483Z,8.564
2022-12-06T06:20:13.507Z,8.527
2022-12-06T06:21:12.624Z,8.539
2022-12-06T06:22:13.266Z,8.550
2022-12-06T06:23:13.767Z,8.555
2022-12-06T06:24:13.380Z,8.534
2022-12-06T06:25:13.957Z,8.534
2022-12-06T06:26:12.999Z,8.555
2022-12-06T06:27:13.899Z,8.564
2022-12-06T06:28:14.688Z,8.550
2022-12-06T06:29:14.429Z,8.555
2022-12-06T06:30:13.406Z,8.564
2022-12-06T06:31:13.444Z,8.574
2022-12-06T06:32:14.297Z,8.564
2022-12-06T06:33:14.103Z,8.574
2022-12-06T06:34:13.369Z,8.560
2022-12-06T06:35:13.611Z,8.560
2022-12-06T06:36:14.007Z,8.560
2022-12-06T06:37:13.223Z,8.574
2022-12-06T06:38:14.206Z,8.560
2022-12-06T06:39:13.331Z,8.574
2022-12-06T06:40:13.357Z,8.534
2022-12-06T06:41:13.495Z,8.539
2022-12-06T06:42:13.230Z,8.560
2022-12-06T06:43:13.583Z,8.555
2022-12-06T06:44:13.383Z,8.534
2022-12-06T06:45:13.051Z,8.529
2022-12-06T06:46:13.279Z,8.534
2022-12-06T06:47:13.155Z,8.550
2022-12-06T06:48:14.268Z,8.534
2022-12-06T06:49:13.032Z,8.534
2022-12-06T06:50:13.062Z,8.569
2022-12-06T06:51:12.995Z,8.529
2022-12-06T06:52:13.874Z,8.539
2022-12-06T06:53:13.339Z,8.550
2022-12-06T06:54:12.759Z,8.585
2022-12-06T06:55:19.014Z,8.585
2022-12-06T06:56:13.846Z,8.569
2022-12-06T06:57:18.561Z,8.614
2022-12-06T06:58:13.158Z,8.595
2022-12-06T06:59:13.173Z,8.579
2022-12-06T07:00:14.111Z,8.574
2022-12-06T07:01:18.707Z,8.579
2022-12-06T07:02:13.965Z,8.600
2022-12-06T07:03:13.013Z,8.585
2022-12-06T07:04:13.722Z,8.609
2022-12-06T07:05:18.896Z,8.619
2022-12-06T07:06:12.993Z,8.595
2022-12-06T07:07:20.608Z,8.614
2022-12-06T07:08:12.881Z,8.644
2022-12-06T07:09:21.715Z,8.620
2022-12-06T07:10:13.848Z,8.609
2022-12-06T07:11:13.893Z,8.626
2022-12-06T07:12:13.901Z,8.585
2022-12-06T07:13:13.088Z,8.595
2022-12-06T07:14:14.570Z,8.579
2022-12-06T07:15:14.452Z,8.569
2022-12-06T07:16:13.470Z,8.545
2022-12-06T07:17:14.135Z,8.555
2022-12-06T07:18:13.361Z,8.560
2022-12-06T07:19:13.085Z,8.579
2022-12-06T07:20:14.310Z,8.560
2022-12-06T07:21:13.828Z,8.529
2022-12-06T07:22:13.588Z,8.569
2022-12-06T07:23:13.224Z,8.569
2022-12-06T07:24:13.707Z,8.564
2022-12-06T07:25:28.592Z,8.569
2022-12-06T07:26:13.267Z,8.564
2022-12-06T07:27:14.405Z,8.579
2022-12-06T07:28:13.128Z,8.574
2022-12-06T07:29:13.816Z,8.600
2022-12-06T07:30:17.000Z,8.600
2022-12-06T07:31:13.743Z,8.595
2022-12-06T07:32:13.419Z,8.590
2022-12-06T07:33:12.958Z,8.604
2022-12-06T07:34:14.441Z,8.610
2022-12-06T07:35:14.428Z,8.657
2022-12-06T07:36:14.340Z,8.661
2022-12-06T07:37:13.573Z,8.645
2022-12-06T07:38:13.740Z,8.645
2022-12-06T07:39:15.145Z,8.619
2022-12-06T07:40:13.369Z,8.630
2022-12-06T07:41:12.828Z,8.651
2022-12-06T07:42:13.995Z,8.654
2022-12-06T07:43:12.581Z,8.649
2022-12-06T07:44:13.421Z,8.642
2022-12-06T07:45:35.477Z,8.649
2022-12-06T07:46:14.261Z,8.626
2022-12-06T07:47:13.776Z,8.616
2022-12-06T07:48:13.367Z,8.625
2022-12-06T07:50:17.875Z,8.678
2022-12-06T07:51:13.463Z,8.689
2022-12-06T07:52:13.557Z,8.699
2022-12-06T07:53:13.742Z,8.670
2022-12-06T07:54:13.899Z,8.671
2022-12-06T07:55:13.173Z,8.677
2022-12-06T07:56:13.449Z,8.699
2022-12-06T07:58:13.141Z,8.621
2022-12-06T07:59:13.591Z,8.614
2022-12-06T08:00:15.271Z,8.626
2022-12-06T08:02:14.269Z,8.649
2022-12-06T08:03:13.842Z,8.637
2022-12-06T08:04:13.505Z,8.637
2022-12-06T08:05:13.113Z,8.666
2022-12-06T08:06:13.260Z,8.666
2022-12-06T08:07:13.522Z,8.666
2022-12-06T08:08:14.032Z,8.678
2022-12-06T08:09:12.857Z,8.654
2022-12-06T08:10:14.417Z,8.689
2022-12-06T08:11:13.525Z,8.699
2022-12-06T08:12:13.618Z,8.684
2022-12-06T08:13:13.590Z,8.699
2022-12-06T08:14:13.360Z,8.704
2022-12-06T08:15:13.813Z,8.699
2022-12-06T08:16:13.380Z,8.692
2022-12-06T08:17:14.170Z,8.725
2022-12-06T08:18:13.549Z,8.699
2022-12-06T08:19:13.796Z,8.710
2022-12-06T08:20:14.391Z,8.720
2022-12-06T08:21:13.339Z,8.734
2022-12-06T08:22:13.576Z,8.755
2022-12-06T08:23:14.144Z,8.765
2022-12-06T08:24:13.055Z,8.770
2022-12-06T08:25:13.119Z,8.75
2022-12-06T08:26:12.862Z,8.744
2022-12-06T08:27:13.506Z,8.734
2022-12-06T08:28:13.262Z,8.710
2022-12-06T08:29:13.604Z,8.75
2022-12-06T08:30:13.932Z,8.760
2022-12-06T08:31:13.772Z,8.779
2022-12-06T08:32:14.192Z,8.800
2022-12-06T08:33:13.918Z,8.779
2022-12-06T08:34:13.457Z,8.774
2022-12-06T08:35:14.210Z,8.784
2022-12-06T08:36:14.219Z,8.770
2022-12-06T08:37:13.857Z,8.760
2022-12-06T08:38:14.426Z,8.795
2022-12-06T08:39:13.868Z,8.795
2022-12-06T08:40:14.392Z,8.805
2022-12-06T08:41:13.779Z,8.828
2022-12-06T08:42:14.529Z,8.826
2022-12-06T08:43:13.800Z,8.861
2022-12-06T08:44:13.994Z,8.883
2022-12-06T08:45:13.283Z,8.890
2022-12-06T08:46:13.220Z,8.890
2022-12-06T08:47:13.657Z,8.895
2022-12-06T08:48:14.082Z,8.904
2022-12-06T08:49:13.765Z,8.904
2022-12-06T08:50:14.172Z,8.904
2022-12-06T08:51:13.735Z,8.930
2022-12-06T08:52:13.562Z,8.944
2022-12-06T08:53:13.821Z,8.925
2022-12-06T08:54:14.099Z,8.939
2022-12-06T08:55:13.272Z,8.944
2022-12-06T08:56:13.342Z,8.994
2022-12-06T08:57:13.713Z,8.979
2022-12-06T08:58:13.703Z,8.984
2022-12-06T08:59:13.776Z,9.005
2022-12-06T09:00:14.476Z,9.018
2022-12-06T09:01:14.530Z,9.010
2022-12-06T09:02:13.910Z,9.024
2022-12-06T09:03:13.159Z,9.013
2022-12-06T09:04:13.140Z,9.048
2022-12-06T09:05:13.654Z,9.050
2022-12-06T09:06:12.101Z,9.031
2022-12-06T09:07:14.624Z,9.064
2022-12-06T09:08:13.931Z,9.045
2022-12-06T09:09:13.697Z,9.039
2022-12-06T09:10:13.811Z,9.074
2022-12-06T09:11:14.148Z,9.085
2022-12-06T09:12:13.724Z,9.114
2022-12-06T09:13:13.137Z,9.114
2022-12-06T09:14:19.572Z,9.137
2022-12-06T09:15:14.059Z,9.095
2022-12-06T09:16:13.256Z,9.060
2022-12-06T09:17:13.691Z,9.079
2022-12-06T09:18:14.244Z,9.085
2022-12-06T09:19:14.477Z,9.119
2022-12-06T09:20:14.129Z,9.120
2022-12-06T09:21:13.159Z,9.109
2022-12-06T09:22:13.995Z,9.114
2022-12-06T09:23:12.878Z,9.104
2022-12-06T09:24:14.145Z,9.100
2022-12-06T09:25:13.688Z,9.126
2022-12-06T09:26:13.733Z,9.144
2022-12-06T09:27:13.308Z,9.114
2022-12-06T09:28:14.371Z,9.114
2022-12-06T09:29:14.473Z,9.085
2022-12-06T09:30:18.996Z,9.126
2022-12-06T09:31:13.110Z,9.114
2022-12-06T09:32:21.200Z,9.120
2022-12-06T09:33:13.337Z,9.142
2022-12-06T09:34:21.952Z,9.142
2022-12-06T09:35:15.568Z,9.154
2022-12-06T09:36:13.722Z,9.119
2022-12-06T09:37:14.237Z,9.149
2022-12-06T09:38:13.591Z,9.149
2022-12-06T09:39:14.206Z,9.166
2022-12-06T09:40:28.006Z,9.182
2022-12-06T09:41:13.971Z,9.184
2022-12-06T09:42:13.023Z,9.199
2022-12-06T09:43:13.298Z,9.220
2022-12-06T09:44:13.770Z,9.239
2022-12-06T09:45:14.566Z,9.255
2022-12-06T09:46:13.529Z,9.260
2022-12-06T09:47:13.906Z,9.284
2022-12-06T09:48:13.902Z,9.274
2022-12-06T09:49:13.719Z,9.284
2022-12-06T09:50:28.088Z,9.333
2022-12-06T09:51:13.472Z,9.326
2022-12-06T09:52:13.936Z,9.338
2022-12-06T09:53:13.175Z,9.362
2022-12-06T09:54:13.927Z,9.390
2022-12-06T09:55:14.763Z,9.350
2022-12-06T09:56:13.976Z,9.350
2022-12-06T09:57:14.098Z,9.345
2022-12-06T09:58:13.276Z,9.345
2022-12-06T09:59:14.264Z,9.333
2022-12-06T10:00:17.739Z,9.315
2022-12-06T10:01:14.093Z,9.328
2022-12-06T10:02:14.072Z,9.326
2022-12-06T10:03:13.661Z,9.321
2022-12-06T10:04:12.922Z,9.321
2022-12-06T10:05:14.259Z,9.350
2022-12-06T10:06:13.932Z,9.345
2022-12-06T10:07:13.036Z,9.326
2022-12-06T10:08:14.094Z,9.338
2022-12-06T10:09:13.599Z,9.350
2022-12-06T10:10:14.187Z,9.350
2022-12-06T10:11:13.551Z,9.345
2022-12-06T10:12:13.543Z,9.345
2022-12-06T10:13:13.767Z,9.345
2022-12-06T10:14:13.793Z,9.350
2022-12-06T10:15:14.197Z,9.383
2022-12-06T10:16:13.826Z,9.409
2022-12-06T10:17:13.074Z,9.420
2022-12-06T10:18:14.013Z,9.454
2022-12-06T10:19:12.995Z,9.449
2022-12-06T10:20:14.249Z,9.445
2022-12-06T10:21:14.169Z,9.430
2022-12-06T10:22:13.405Z,9.428
2022-12-06T10:23:13.395Z,9.430
2022-12-06T10:24:13.979Z,9.430
2022-12-06T10:25:13.632Z,9.434
2022-12-06T10:26:13.925Z,9.430
2022-12-06T10:27:14.096Z,9.423
2022-12-06T10:28:12.990Z,9.420
2022-12-06T10:29:13.456Z,9.439
2022-12-06T10:30:14.228Z,9.456
2022-12-06T10:31:13.064Z,9.484
2022-12-06T10:32:14.123Z,9.5
2022-12-06T10:33:14.150Z,9.505
2022-12-06T10:34:13.747Z,9.510
2022-12-06T10:35:14.097Z,9.539
2022-12-06T10:36:13.167Z,9.539
2022-12-06T10:37:13.145Z,9.574
2022-12-06T10:38:13.311Z,9.604
2022-12-06T10:39:13.155Z,9.616
2022-12-06T10:40:13.403Z,9.654
2022-12-06T10:41:13.843Z,9.710
2022-12-06T10:42:14.229Z,9.744
2022-12-06T10:43:14.200Z,9.75
2022-12-06T10:44:13.607Z,9.805
2022-12-06T10:45:14.566Z,9.845
2022-12-06T10:46:13.647Z,9.833
2022-12-06T10:47:13.564Z,9.859
2022-12-06T10:48:13.569Z,9.878
2022-12-06T10:49:13.688Z,9.935
2022-12-06T10:50:13.021Z,9.984
2022-12-06T10:51:13.097Z,10.01
2022-12-06T10:52:13.663Z,10.03
2022-12-06T10:53:13.582Z,10.06
2022-12-06T10:54:12.508Z,10.08
2022-12-06T10:55:13.175Z,10.12
2022-12-06T10:56:12.757Z,10.12
2022-12-06T10:57:13.103Z,10.12
2022-12-06T10:58:13.684Z,10.13
2022-12-06T10:59:13.111Z,10.16
2022-12-06T11:00:15.871Z,10.17
2022-12-06T11:01:13.261Z,10.18
2022-12-06T11:02:13.579Z,10.21
2022-12-06T11:03:13.948Z,10.22
2022-12-06T11:04:13.792Z,10.22
2022-12-06T11:05:14.152Z,10.22
2022-12-06T11:06:13.699Z,10.23
2022-12-06T11:07:13.173Z,10.25
2022-12-06T11:08:14.308Z,10.30
2022-12-06T11:09:14.019Z,10.33
2022-12-06T11:10:13.477Z,10.36
2022-12-06T11:11:13.083Z,10.36
2022-12-06T11:12:12.989Z,10.40
2022-12-06T11:13:13.136Z,10.43
2022-12-06T11:14:13.491Z,10.44
2022-12-06T11:15:14.296Z,10.47
2022-12-06T11:16:13.618Z,10.49
2022-12-06T11:17:13.708Z,10.49
2022-12-06T11:18:13.991Z,10.53
2022-12-06T11:19:13.786Z,10.55
2022-12-06T11:20:13.991Z,10.56
2022-12-06T11:21:13.397Z,10.56
2022-12-06T11:22:13.442Z,10.57
2022-12-06T11:23:13.804Z,10.60
2022-12-06T11:24:14.161Z,10.60
2022-12-06T11:25:13.692Z,10.59
2022-12-06T11:26:14.102Z,10.59
2022-12-06T11:27:13.926Z,10.57
2022-12-06T11:28:13.566Z,10.56
2022-12-06T11:29:13.976Z,10.56
2022-12-06T11:30:16.906Z,10.57
2022-12-06T11:31:13.478Z,10.58
2022-12-06T11:32:14.047Z,10.59
2022-12-06T11:33:13.831Z,10.57
2022-12-06T11:34:13.599Z,10.57
2022-12-06T11:35:13.914Z,10.56
2022-12-06T11:36:13.946Z,10.55
2022-12-06T11:37:14.500Z,10.51
2022-12-06T11:38:13.952Z,10.47
2022-12-06T11:39:13.869Z,10.47
2022-12-06T11:40:13.422Z,10.44
2022-12-06T11:41:14.287Z,10.44
2022-12-06T11:42:13.647Z,10.42
2022-12-06T11:43:14.096Z,10.42
2022-12-06T11:44:13.260Z,10.44
2022-12-06T11:45:14.203Z,10.44
2022-12-06T11:46:13.899Z,10.43
2022-12-06T11:47:14.716Z,10.46
2022-12-06T11:48:14.294Z,10.48
2022-12-06T11:49:19.905Z,10.45
2022-12-06T11:50:16.934Z,10.51
2022-12-06T11:51:14.179Z,10.52
2022-12-06T11:52:12.882Z,10.5
2022-12-06T11:53:13.583Z,10.48
2022-12-06T11:54:14.215Z,10.49
2022-12-06T11:55:14.527Z,10.47
2022-12-06T11:56:13.731Z,10.46
2022-12-06T11:57:18.011Z,10.49
2022-12-06T11:58:13.524Z,10.5
2022-12-06T11:59:13.509Z,10.45
2022-12-06T12:00:15.209Z,10.45
2022-12-06T12:01:20.970Z,10.47
2022-12-06T12:02:19.430Z,10.46
2022-12-06T12:03:13.612Z,10.47
2022-12-06T12:04:13.385Z,10.48
2022-12-06T12:05:14.868Z,10.47
2022-12-06T12:06:13.998Z,10.47
2022-12-06T12:07:28.672Z,10.44
2022-12-06T12:08:14.247Z,10.46
2022-12-06T12:09:13.900Z,10.46
2022-12-06T12:10:13.311Z,10.46
2022-12-06T12:11:13.269Z,10.47
2022-12-06T12:12:13.219Z,10.48
2022-12-06T12:13:27.711Z,10.50
2022-12-06T12:14:13.689Z,10.51
2022-12-06T12:15:28.664Z,10.5
2022-12-06T12:16:14.291Z,10.47
2022-12-06T12:17:27.840Z,10.46
2022-12-06T12:18:13.965Z,10.49
2022-12-06T12:19:13.067Z,10.51
2022-12-06T12:20:13.894Z,10.53
2022-12-06T12:21:13.051Z,10.53
2022-12-06T12:22:13.554Z,10.56
2022-12-06T12:23:13.361Z,10.56
2022-12-06T12:24:14.339Z,10.57
2022-12-06T12:25:33.350Z,10.57
2022-12-06T12:26:13.702Z,10.56
2022-12-06T12:27:21.173Z,10.56
2022-12-06T12:28:13.672Z,10.56
2022-12-06T12:29:13.643Z,10.58
2022-12-06T12:30:13.689Z,10.57
2022-12-06T12:31:14.113Z,10.58
2022-12-06T12:32:13.558Z,10.58
2022-12-06T12:33:13.253Z,10.59
2022-12-06T12:34:13.352Z,10.58
2022-12-06T12:35:13.462Z,10.59
2022-12-06T12:36:13.523Z,10.60
2022-12-06T12:37:13.993Z,10.59
2022-12-06T12:38:13.587Z,10.60
2022-12-06T12:39:14.052Z,10.56
2022-12-06T12:40:14.110Z,10.53
2022-12-06T12:41:13.641Z,10.52
2022-12-06T12:42:13.630Z,10.51
2022-12-06T12:43:14.202Z,10.48
2022-12-06T12:44:36.439Z,10.47
2022-12-06T12:45:14.322Z,10.45
2022-12-06T12:46:13.583Z,10.45
2022-12-06T12:47:14.391Z,10.46
2022-12-06T12:48:14.093Z,10.45
2022-12-06T12:49:13.872Z,10.45
2022-12-06T12:50:14.585Z,10.48
2022-12-06T12:51:13.182Z,10.49
2022-12-06T12:52:13.847Z,10.5
2022-12-06T12:53:13.619Z,10.51
2022-12-06T12:54:13.585Z,10.52
2022-12-06T12:55:14.511Z,10.53
2022-12-06T12:56:13.926Z,10.53
2022-12-06T12:57:13.581Z,10.53
2022-12-06T12:58:13.100Z,10.52
2022-12-06T12:59:14.070Z,10.49
2022-12-06T13:00:15.034Z,10.51